createdAt,value
2023-04-15T00:00:00.459Z,8.40
2023-04-15T00:02:29.638Z,7.50
2023-04-15T00:04:57.681Z,6.60
2023-04-15T00:07:25.636Z,5.80
2023-04-15T00:09:55.337Z,6.00
2023-04-15T00:12:24.287Z,6.60
2023-04-15T00:14:52.302Z,7.90
2023-04-15T00:17:20.432Z,8.40
2023-04-15T00:19:48.443Z,7.60
2023-04-15T00:22:17.284Z,7.20
2023-04-15T00:24:45.282Z,7.30
2023-04-15T00:27:13.540Z,8.00
2023-04-15T00:29:41.916Z,7.80
2023-04-15T00:32:09.929Z,8.80
2023-04-15T00:34:37.919Z,8.30
2023-04-15T00:37:05.831Z,8.50
2023-04-15T00:39:34.256Z,9.00
2023-04-15T00:42:05.033Z,8.30
2023-04-15T00:44:33.752Z,9.00
2023-04-15T00:47:04.983Z,9.30
2023-04-15T00:49:33.296Z,9.30
2023-04-15T00:52:04.358Z,9.80
2023-04-15T00:54:32.400Z,8.80
2023-04-15T00:57:00.761Z,10.00
2023-04-15T00:59:29.203Z,9.10
2023-04-15T01:01:57.355Z,8.90
2023-04-15T01:04:26.293Z,9.70
2023-04-15T01:06:54.379Z,10.40
2023-04-15T01:09:22.387Z,9.40
2023-04-15T01:11:52.729Z,8.90
2023-04-15T01:14:21.422Z,8.30
2023-04-15T01:16:49.445Z,8.80
2023-04-15T01:19:18.284Z,9.50
2023-04-15T01:21:47.093Z,9.10
2023-04-15T01:24:18.669Z,8.40
2023-04-15T01:26:47.452Z,8.70
2023-04-15T01:29:15.691Z,8.60
2023-04-15T01:31:55.111Z,8.40
2023-04-15T01:34:23.430Z,8.90
2023-04-15T01:36:55.250Z,9.10
2023-04-15T01:39:23.555Z,8.20
2023-04-15T01:41:51.447Z,8.90
2023-04-15T01:44:19.319Z,8.50
2023-04-15T01:46:48.513Z,8.30
2023-04-15T01:49:17.106Z,7.20
2023-04-15T01:51:44.954Z,7.50
2023-04-15T01:54:14.339Z,6.90
2023-04-15T01:56:42.434Z,6.90
2023-04-15T01:59:11.084Z,6.90
2023-04-15T02:01:39.763Z,6.90
2023-04-15T02:04:08.443Z,6.30
2023-04-15T02:06:36.503Z,6.80
2023-04-15T02:09:04.451Z,6.20
2023-04-15T02:11:32.549Z,6.40
2023-04-15T02:14:00.586Z,6.20
2023-04-15T02:16:28.571Z,5.70
2023-04-15T02:18:56.520Z,5.70
2023-04-15T02:21:26.876Z,5.70
2023-04-15T02:23:54.731Z,6.20
2023-04-15T02:26:23.009Z,5.80
2023-04-15T02:28:53.845Z,6.00
2023-04-15T02:31:21.881Z,5.70
2023-04-15T02:33:50.296Z,6.10
2023-04-15T02:36:18.367Z,6.10
2023-04-15T02:38:46.397Z,6.50
2023-04-15T02:41:15.284Z,6.30
2023-04-15T02:43:44.187Z,6.70
2023-04-15T02:46:14.875Z,6.30
2023-04-15T02:48:43.180Z,7.10
2023-04-15T02:51:22.987Z,6.80
2023-04-15T02:53:51.349Z,7.10
2023-04-15T02:56:20.000Z,7.70
2023-04-15T02:58:50.745Z,8.30
2023-04-15T03:01:19.333Z,8.20
2023-04-15T03:03:47.810Z,8.10
2023-04-15T03:06:15.832Z,7.90
2023-04-15T03:08:43.846Z,7.90
2023-04-15T03:11:15.510Z,9.00
2023-04-15T03:13:43.552Z,9.10
2023-04-15T03:16:21.188Z,8.50
2023-04-15T03:18:49.396Z,8.70
2023-04-15T03:21:17.628Z,8.90
2023-04-15T03:23:48.681Z,9.30
2023-04-15T03:26:30.578Z,9.60
2023-04-15T03:29:03.669Z,8.70
2023-04-15T03:31:31.841Z,9.50
2023-04-15T03:33:59.890Z,10.40
2023-04-15T03:36:34.658Z,10.00
2023-04-15T03:39:03.348Z,10.90
2023-04-15T03:41:32.873Z,10.80
2023-04-15T03:44:01.120Z,10.80
2023-04-15T03:46:29.174Z,9.60
2023-04-15T03:48:57.093Z,9.70
2023-04-15T03:51:24.981Z,8.60
2023-04-15T03:53:52.841Z,10.20
2023-04-15T03:56:21.095Z,10.60
2023-04-15T03:58:49.006Z,8.40
2023-04-15T04:01:16.854Z,12.70
2023-04-15T04:03:44.894Z,10.90
2023-04-15T04:06:13.071Z,10.50
2023-04-15T04:08:41.000Z,10.20
2023-04-15T04:11:08.940Z,9.50
2023-04-15T04:13:36.998Z,9.80
2023-04-15T04:16:05.425Z,9.70
2023-04-15T04:18:33.897Z,9.00
2023-04-15T04:21:02.182Z,9.60
2023-04-15T04:23:30.513Z,9.20
2023-04-15T04:25:58.362Z,8.30
2023-04-15T04:28:26.231Z,8.60
2023-04-15T04:30:54.393Z,8.60
2023-04-15T04:33:22.600Z,8.30
2023-04-15T04:35:50.481Z,7.90
2023-04-15T04:38:18.290Z,7.10
2023-04-15T04:40:46.709Z,6.90
2023-04-15T04:43:15.973Z,6.80
2023-04-15T04:45:44.028Z,6.90
2023-04-15T04:48:12.008Z,6.00
2023-04-15T04:50:40.080Z,6.50
2023-04-15T04:53:08.130Z,6.40
2023-04-15T04:55:38.623Z,9.30
2023-04-15T04:58:07.110Z,9.70
2023-04-15T05:00:35.071Z,8.90
2023-04-15T05:03:03.066Z,8.90
2023-04-15T05:05:31.493Z,9.20
2023-04-15T05:07:59.410Z,8.80
2023-04-15T05:10:27.275Z,8.30
2023-04-15T05:12:55.512Z,8.50
2023-04-15T05:15:23.390Z,7.30
2023-04-15T05:17:51.873Z,6.90
2023-04-15T05:20:19.991Z,6.10
2023-04-15T05:22:48.038Z,6.10
2023-04-15T05:25:16.413Z,6.00
2023-04-15T05:27:44.451Z,5.80
2023-04-15T05:30:13.835Z,6.00
2023-04-15T05:32:42.058Z,6.10
2023-04-15T05:35:10.111Z,6.40
2023-04-15T05:37:38.034Z,6.70
2023-04-15T05:40:06.719Z,7.00
2023-04-15T05:42:35.845Z,7.50
2023-04-15T05:45:05.731Z,8.80
2023-04-15T05:47:54.407Z,8.70
2023-04-15T05:50:22.390Z,8.00
2023-04-15T05:52:50.304Z,7.10
2023-04-15T05:55:18.211Z,7.00
2023-04-15T05:57:46.501Z,6.70
2023-04-15T06:00:15.503Z,9.40
2023-04-15T06:02:43.819Z,9.90
2023-04-15T06:05:12.094Z,10.10
2023-04-15T06:07:40.205Z,9.20
2023-04-15T06:10:08.956Z,9.10
2023-04-15T06:12:37.082Z,8.80
2023-04-15T06:15:06.711Z,8.20
2023-04-15T06:17:34.579Z,7.30
2023-04-15T06:20:02.454Z,7.40
2023-04-15T06:22:30.489Z,8.20
2023-04-15T06:24:58.584Z,9.20
2023-04-15T06:27:26.516Z,8.60
2023-04-15T06:29:54.481Z,9.20
2023-04-15T06:32:22.713Z,8.90
2023-04-15T06:34:50.733Z,8.40
2023-04-15T06:37:18.624Z,7.70
2023-04-15T06:39:46.481Z,7.20
2023-04-15T06:42:14.562Z,7.60
2023-04-15T06:44:42.589Z,8.50
2023-04-15T06:47:10.482Z,4.90
2023-04-15T06:49:38.668Z,3.30
2023-04-15T06:52:06.711Z,2.60
2023-04-15T06:54:34.836Z,2.50
2023-04-15T06:57:02.906Z,3.50
2023-04-15T06:59:31.309Z,2.40
2023-04-15T07:01:59.526Z,2.50
2023-04-15T07:04:28.012Z,2.30
2023-04-15T07:06:57.021Z,2.00
2023-04-15T07:09:25.725Z,1.80
2023-04-15T07:11:53.684Z,2.60
2023-04-15T07:14:21.684Z,2.40
2023-04-15T07:16:49.690Z,2.30
2023-04-15T07:19:17.562Z,2.50
2023-04-15T07:21:45.465Z,3.60
2023-04-15T07:24:16.896Z,3.30
2023-04-15T07:26:45.313Z,2.00
2023-04-15T07:29:13.364Z,2.70
2023-04-15T07:31:42.382Z,3.30
2023-04-15T07:34:10.912Z,3.10
2023-04-15T07:36:38.814Z,2.70
2023-04-15T07:39:06.841Z,2.20
2023-04-15T07:41:35.256Z,2.60
2023-04-15T07:44:03.164Z,3.70
2023-04-15T07:46:31.294Z,3.40
2023-04-15T07:48:59.370Z,2.70
2023-04-15T07:51:27.394Z,2.90
2023-04-15T07:53:55.477Z,2.30
2023-04-15T07:56:23.367Z,3.50
2023-04-15T07:58:51.743Z,3.20
2023-04-15T08:01:19.930Z,2.80
2023-04-15T08:03:48.668Z,2.80
2023-04-15T08:06:16.765Z,3.40
2023-04-15T08:08:44.788Z,2.70
2023-04-15T08:11:13.635Z,2.50
2023-04-15T08:13:41.747Z,3.20
2023-04-15T08:16:19.397Z,2.90
2023-04-15T08:18:48.750Z,3.30
2023-04-15T08:21:17.868Z,3.70
2023-04-15T08:23:48.565Z,2.60
2023-04-15T08:26:17.718Z,2.30
2023-04-15T08:28:47.109Z,3.20
2023-04-15T08:31:16.686Z,2.60
2023-04-15T08:33:45.091Z,2.50
2023-04-15T08:36:14.103Z,2.70
2023-04-15T08:38:42.374Z,2.00
2023-04-15T08:41:39.626Z,2.40
2023-04-15T08:44:07.719Z,2.20
2023-04-15T08:46:35.995Z,1.60
2023-04-15T08:49:05.315Z,2.20
2023-04-15T08:51:34.331Z,4.10
2023-04-15T08:54:03.623Z,3.10
2023-04-15T08:56:33.248Z,3.20
2023-04-15T08:59:02.635Z,3.30
2023-04-15T09:01:32.292Z,3.20
2023-04-15T09:04:08.514Z,2.90
2023-04-15T09:06:36.890Z,3.30
2023-04-15T09:09:12.430Z,4.10
2023-04-15T09:11:40.549Z,3.90
2023-04-15T09:14:08.572Z,2.50
2023-04-15T09:16:59.622Z,2.40
2023-04-15T09:19:42.175Z,2.30
2023-04-15T09:22:15.555Z,2.20
2023-04-15T09:24:43.812Z,2.60
2023-04-15T09:27:11.882Z,3.90
2023-04-15T09:29:42.681Z,3.10
2023-04-15T09:32:12.588Z,3.30
2023-04-15T09:34:40.635Z,2.20
2023-04-15T09:37:11.159Z,1.90
2023-04-15T09:39:50.153Z,2.00
2023-04-15T09:42:24.774Z,1.90
2023-04-15T09:44:53.265Z,2.20
2023-04-15T09:47:29.395Z,3.40
2023-04-15T09:50:01.358Z,2.30
2023-04-15T09:52:30.340Z,4.70
2023-04-15T09:54:59.498Z,2.40
2023-04-15T09:57:38.153Z,2.10
2023-04-15T10:00:08.580Z,2.10
2023-04-15T10:02:39.998Z,2.30
2023-04-15T10:07:41.399Z,2.60
2023-04-15T10:10:11.013Z,2.20
2023-04-15T10:12:41.750Z,2.00
2023-04-15T10:15:17.444Z,2.00
2023-04-15T10:17:46.352Z,1.90
2023-04-15T10:20:17.777Z,2.20
2023-04-15T10:22:46.877Z,3.70
2023-04-15T10:25:16.635Z,1.90
2023-04-15T10:27:45.551Z,2.50
2023-04-15T10:30:13.866Z,2.00
2023-04-15T10:32:42.663Z,1.90
2023-04-15T10:35:12.020Z,2.10
2023-04-15T10:37:40.132Z,3.60
2023-04-15T10:40:31.909Z,4.30
2023-04-15T10:43:03.949Z,5.40
2023-04-15T10:45:37.979Z,2.50
2023-04-15T10:48:09.127Z,2.20
2023-04-15T10:50:37.873Z,1.90
2023-04-15T10:53:06.032Z,1.50
2023-04-15T10:55:34.812Z,1.80
2023-04-15T10:58:03.356Z,1.80
2023-04-15T11:00:33.096Z,2.50
2023-04-15T11:03:10.544Z,2.40
2023-04-15T11:05:41.734Z,2.70
2023-04-15T11:08:11.454Z,2.10
2023-04-15T11:10:39.456Z,1.50
2023-04-15T11:13:10.284Z,2.10
2023-04-15T11:18:17.073Z,2.80
2023-04-15T11:20:59.735Z,3.40
2023-04-15T11:23:37.630Z,2.40
2023-04-15T11:26:12.435Z,2.00
2023-04-15T11:28:44.922Z,2.50
2023-04-15T11:31:20.495Z,2.70
2023-04-15T11:33:59.662Z,1.70
2023-04-15T11:36:29.820Z,1.50
2023-04-15T11:38:59.918Z,1.90
2023-04-15T11:41:28.814Z,1.70
2023-04-15T11:43:59.816Z,2.40
2023-04-15T11:46:34.218Z,2.60
2023-04-15T11:49:02.114Z,2.00
2023-04-15T11:51:34.655Z,1.80
2023-04-15T11:54:03.967Z,1.90
2023-04-15T11:56:32.390Z,2.40
2023-04-15T11:59:00.353Z,2.10
2023-04-15T12:01:36.541Z,2.00
2023-04-15T12:04:13.014Z,1.70
2023-04-15T12:06:41.739Z,1.30
2023-04-15T12:09:14.503Z,2.20
2023-04-15T12:11:50.199Z,2.20
2023-04-15T12:14:32.657Z,3.60
2023-04-15T12:17:03.147Z,7.30
2023-04-15T12:19:40.196Z,3.20
2023-04-15T12:22:12.845Z,2.30
2023-04-15T12:24:44.362Z,2.90
2023-04-15T12:27:13.480Z,3.90
2023-04-15T12:29:54.249Z,2.30
2023-04-15T12:34:53.559Z,1.70
2023-04-15T12:37:22.429Z,1.60
2023-04-15T12:39:51.040Z,2.80
2023-04-15T12:42:19.708Z,4.10
2023-04-15T12:44:48.089Z,2.60
2023-04-15T12:47:16.312Z,2.30
2023-04-15T12:49:44.456Z,2.70
2023-04-15T12:52:15.337Z,1.80
2023-04-15T12:54:43.350Z,3.10
2023-04-15T12:57:11.331Z,1.80
2023-04-15T12:59:39.341Z,1.70
2023-04-15T13:02:08.089Z,1.50
2023-04-15T13:04:36.192Z,1.60
2023-04-15T13:07:04.389Z,1.90
2023-04-15T13:09:32.582Z,2.00
2023-04-15T13:12:01.403Z,1.80
2023-04-15T13:14:29.324Z,1.90
2023-04-15T13:16:58.124Z,1.70
2023-04-15T13:19:26.750Z,1.30
2023-04-15T13:21:54.703Z,1.70
2023-04-15T13:24:22.642Z,1.70
2023-04-15T13:26:50.681Z,1.40
2023-04-15T13:29:18.780Z,1.50
2023-04-15T13:31:46.774Z,1.40
2023-04-15T13:34:14.774Z,1.50
2023-04-15T13:36:43.991Z,2.50
2023-04-15T13:39:11.994Z,1.80
2023-04-15T13:41:41.071Z,1.70
2023-04-15T13:44:08.988Z,1.80
2023-04-15T13:46:37.945Z,1.60
2023-04-15T13:49:06.201Z,2.40
2023-04-15T13:51:36.479Z,2.40
2023-04-15T13:54:04.554Z,1.90
2023-04-15T13:56:32.696Z,2.00
2023-04-15T13:59:02.478Z,2.70
2023-04-15T14:01:30.599Z,2.10
2023-04-15T14:03:58.756Z,2.20
2023-04-15T14:06:28.114Z,2.50
2023-04-15T14:08:56.064Z,1.70
2023-04-15T14:11:24.030Z,1.90
2023-04-15T14:13:51.903Z,1.90
2023-04-15T14:16:19.787Z,1.70
2023-04-15T14:18:47.776Z,1.90
2023-04-15T14:21:15.804Z,1.70
2023-04-15T14:23:43.882Z,1.60
2023-04-15T14:26:11.974Z,1.80
2023-04-15T14:28:39.961Z,1.60
2023-04-15T14:31:11.162Z,1.80
2023-04-15T14:33:39.303Z,1.30
2023-04-15T14:36:09.245Z,1.50
2023-04-15T14:38:38.762Z,1.80
2023-04-15T14:41:08.162Z,1.60
2023-04-15T14:43:36.742Z,17.00
2023-04-15T14:46:04.920Z,9.60
2023-04-15T14:48:33.249Z,2.00
2023-04-15T14:51:01.234Z,1.50
2023-04-15T14:53:29.554Z,3.10
2023-04-15T14:55:57.645Z,2.20
2023-04-15T14:58:25.729Z,1.30
2023-04-15T15:00:53.608Z,1.50
2023-04-15T15:03:21.786Z,1.40
2023-04-15T15:05:49.868Z,1.60
2023-04-15T15:08:17.885Z,1.80
2023-04-15T15:10:49.080Z,1.40
2023-04-15T15:13:18.982Z,18.80
2023-04-15T15:15:49.323Z,10.50
2023-04-15T15:18:19.396Z,12.90
2023-04-15T15:20:47.853Z,8.70
2023-04-15T15:23:18.607Z,8.10
2023-04-15T15:28:15.315Z,4.70
2023-04-15T15:30:43.189Z,5.10
2023-04-15T15:33:11.163Z,6.90
2023-04-15T15:35:39.709Z,6.40
2023-04-15T15:38:07.816Z,4.80
2023-04-15T15:40:35.965Z,5.60
2023-04-15T15:43:04.543Z,8.20
2023-04-15T15:45:32.662Z,7.90
2023-04-15T15:48:02.109Z,4.50
2023-04-15T15:50:30.335Z,5.90
2023-04-15T15:52:58.975Z,5.90
2023-04-15T15:55:27.433Z,2.60
2023-04-15T15:57:55.600Z,2.90
2023-04-15T16:00:23.825Z,2.20
2023-04-15T16:03:06.763Z,3.40
2023-04-15T16:05:38.691Z,4.80
2023-04-15T16:08:06.873Z,3.80
2023-04-15T16:10:35.115Z,5.70
2023-04-15T16:15:34.615Z,3.30
2023-04-15T16:18:03.245Z,3.40
2023-04-15T16:20:31.639Z,3.70
2023-04-15T16:22:59.756Z,2.50
2023-04-15T16:25:27.864Z,2.50
2023-04-15T16:28:05.591Z,2.90
2023-04-15T16:30:44.086Z,3.00
2023-04-15T16:33:12.120Z,3.50
2023-04-15T16:35:40.217Z,2.80
2023-04-15T16:38:08.257Z,3.10
2023-04-15T16:40:37.688Z,3.50
2023-04-15T16:43:08.254Z,9.90
2023-04-15T16:45:36.283Z,13.80
2023-04-15T16:48:04.596Z,21.80
2023-04-15T16:50:32.781Z,28.90
2023-04-15T16:53:01.696Z,16.90
2023-04-15T16:55:29.784Z,13.40
2023-04-15T16:58:01.642Z,11.30
2023-04-15T17:00:33.107Z,7.80
2023-04-15T17:03:01.705Z,17.80
2023-04-15T17:05:32.913Z,14.00
2023-04-15T17:10:29.201Z,8.20
2023-04-15T17:12:58.210Z,7.10
2023-04-15T17:15:27.494Z,6.30
2023-04-15T17:17:55.743Z,6.60
2023-04-15T17:20:26.618Z,7.40
2023-04-15T17:22:54.858Z,33.80
2023-04-15T17:25:23.313Z,47.20
2023-04-15T17:27:51.343Z,33.20
2023-04-15T17:30:19.541Z,32.20
2023-04-15T17:32:47.652Z,21.90
2023-04-15T17:35:15.765Z,19.50
2023-04-15T17:37:43.876Z,19.40
2023-04-15T17:40:12.438Z,14.50
2023-04-15T17:42:41.418Z,12.10
2023-04-15T17:45:09.830Z,9.90
2023-04-15T17:47:38.198Z,8.20
2023-04-15T17:50:10.179Z,7.90
2023-04-15T17:52:41.631Z,7.30
2023-04-15T17:55:09.782Z,6.70
2023-04-15T17:57:37.897Z,6.90
2023-04-15T18:00:11.702Z,17.60
2023-04-15T18:02:42.482Z,25.00
2023-04-15T18:05:10.835Z,36.30
2023-04-15T18:07:39.430Z,38.30
2023-04-15T18:10:08.816Z,43.50
2023-04-15T18:12:36.700Z,40.30
2023-04-15T18:15:07.356Z,31.90
2023-04-15T18:20:04.003Z,20.50
2023-04-15T18:22:34.226Z,23.80
2023-04-15T18:25:04.836Z,28.40
2023-04-15T18:27:34.068Z,27.30
2023-04-15T18:30:02.133Z,27.10
2023-04-15T18:32:32.915Z,29.50
2023-04-15T18:37:29.524Z,23.60
2023-04-15T18:39:58.300Z,18.90
2023-04-15T18:42:26.227Z,22.30
2023-04-15T18:44:54.767Z,21.40
2023-04-15T18:47:24.626Z,23.30
2023-04-15T18:49:54.394Z,26.40
2023-04-15T18:52:23.171Z,26.60
2023-04-15T18:54:51.430Z,28.00
2023-04-15T18:57:22.705Z,28.80
2023-04-15T18:59:56.919Z,27.20
2023-04-15T19:02:25.021Z,26.90
2023-04-15T19:04:53.441Z,25.10
2023-04-15T19:07:22.267Z,24.70
2023-04-15T19:09:50.415Z,25.80
2023-04-15T19:12:18.413Z,22.80
2023-04-15T19:14:46.427Z,19.40
2023-04-15T19:17:14.454Z,17.30
2023-04-15T19:19:42.345Z,19.20
2023-04-15T19:22:10.623Z,17.20
2023-04-15T19:24:38.674Z,16.80
2023-04-15T19:27:06.841Z,15.70
2023-04-15T19:29:35.073Z,16.30
2023-04-15T19:32:03.139Z,16.50
2023-04-15T19:34:31.621Z,15.60
2023-04-15T19:36:59.682Z,13.80
2023-04-15T19:39:27.556Z,15.10
2023-04-15T19:41:56.027Z,14.30
2023-04-15T19:44:24.010Z,13.90
2023-04-15T19:46:53.232Z,13.90
2023-04-15T19:49:21.302Z,13.70
2023-04-15T19:51:52.664Z,11.70
2023-04-15T19:54:21.335Z,10.80
2023-04-15T19:56:49.405Z,11.30
2023-04-15T19:59:17.489Z,10.90
2023-04-15T20:01:45.722Z,12.40
2023-04-15T20:04:13.945Z,11.70
2023-04-15T20:06:42.119Z,13.00
2023-04-15T20:09:11.531Z,11.50
2023-04-15T20:12:44.992Z,12.00
2023-04-15T20:14:27.913Z,14.50
2023-04-15T20:16:56.366Z,11.90
2023-04-15T20:19:24.381Z,11.40
2023-04-15T20:21:54.047Z,11.60
2023-04-15T20:24:24.277Z,11.50
2023-04-15T20:26:52.389Z,11.70
2023-04-15T20:29:20.543Z,11.00
2023-04-15T20:31:48.949Z,9.80
2023-04-15T20:34:17.217Z,10.10
2023-04-15T20:36:45.285Z,9.20
2023-04-15T20:39:13.316Z,10.70
2023-04-15T20:41:41.411Z,9.70
2023-04-15T20:44:09.551Z,9.70
2023-04-15T20:46:37.867Z,10.60
2023-04-15T20:49:06.042Z,10.70
2023-04-15T20:51:37.716Z,10.90
2023-04-15T20:54:06.598Z,10.40
2023-04-15T20:56:34.523Z,10.60
2023-04-15T20:59:02.627Z,11.40
2023-04-15T21:01:30.827Z,11.40
2023-04-15T21:03:59.114Z,12.70
2023-04-15T21:06:27.929Z,12.80
2023-04-15T21:08:56.214Z,11.70
2023-04-15T21:11:43.144Z,12.00
2023-04-15T21:14:12.388Z,11.50
2023-04-15T21:16:41.014Z,11.30
2023-04-15T21:19:11.516Z,10.40
2023-04-15T21:21:39.789Z,10.80
2023-04-15T21:24:07.879Z,10.10
2023-04-15T21:26:36.312Z,10.10
2023-04-15T21:29:04.854Z,9.00
2023-04-15T21:31:33.277Z,8.40
2023-04-15T21:34:01.230Z,8.80
2023-04-15T21:36:29.204Z,8.30
2023-04-15T21:38:57.283Z,6.90
2023-04-15T21:41:26.017Z,6.80
2023-04-15T21:43:54.082Z,8.00
2023-04-15T21:46:25.581Z,8.90
2023-04-15T21:49:00.865Z,9.90
2023-04-15T21:51:28.861Z,9.20
2023-04-15T21:53:56.990Z,8.90
2023-04-15T21:56:25.874Z,8.80
2023-04-15T21:58:57.031Z,8.40
2023-04-15T22:01:26.233Z,7.90
2023-04-15T22:03:54.457Z,7.50
2023-04-15T22:06:22.750Z,7.90
2023-04-15T22:08:57.022Z,8.00
2023-04-15T22:11:31.146Z,8.10
2023-04-15T22:13:59.591Z,7.90
2023-04-15T22:16:28.508Z,8.80
2023-04-15T22:18:56.762Z,8.70
2023-04-15T22:21:24.985Z,7.50
2023-04-15T22:23:53.311Z,8.30
2023-04-15T22:26:41.350Z,9.00
2023-04-15T22:29:09.868Z,8.70
2023-04-15T22:31:37.858Z,9.10
2023-04-15T22:34:05.846Z,8.60
2023-04-15T22:36:34.156Z,8.50
2023-04-15T22:39:02.336Z,7.60
2023-04-15T22:41:30.328Z,7.80
2023-04-15T22:43:58.396Z,8.50
2023-04-15T22:46:26.419Z,8.40
2023-04-15T22:48:54.414Z,7.70
2023-04-15T22:51:23.870Z,8.00
2023-04-15T22:53:51.880Z,7.10
2023-04-15T22:56:21.336Z,6.90
2023-04-15T22:58:50.756Z,6.70
2023-04-15T23:01:19.233Z,6.50
2023-04-15T23:03:55.712Z,6.80
2023-04-15T23:06:25.274Z,6.40
2023-04-15T23:08:54.011Z,6.70
2023-04-15T23:11:22.050Z,6.60
2023-04-15T23:13:50.814Z,6.80
2023-04-15T23:16:19.030Z,7.10
2023-04-15T23:18:47.054Z,6.90
2023-04-15T23:21:15.141Z,6.90
2023-04-15T23:23:43.229Z,6.60
2023-04-15T23:26:11.667Z,6.20
2023-04-15T23:28:39.657Z,6.70
2023-04-15T23:31:07.699Z,9.50
2023-04-15T23:33:35.745Z,16.00
2023-04-15T23:36:07.723Z,15.50
2023-04-15T23:38:35.733Z,14.60
2023-04-15T23:41:03.848Z,12.00
2023-04-15T23:43:31.864Z,10.30
2023-04-15T23:45:59.761Z,9.20
2023-04-15T23:48:27.759Z,8.80
2023-04-15T23:50:56.140Z,8.70
2023-04-15T23:53:24.118Z,7.50
2023-04-15T23:55:52.080Z,6.40
2023-04-15T23:58:20.037Z,6.40
